Time;durP1;ratioP1;P1;durP2;ratioP2;P2;SDS_P1;SDS_P2;PMS_P1;PMS_P2;Temp;Humidity;BMP_temperature;BMP_pressure;BME280_temperature;BME280_humidity;BME280_pressure;Samples;Min_cycle;Max_cycle;Signal;HPM_P1;HPM_P2
2022/08/08 00:00:12;;;;;;;7.93;5.75;;;18.20;99.90;;;;;;5063191;28;20079;-64
2022/08/08 00:03:03;;;;;;;6.40;5.80;;;18.20;99.90;;;;;;5068601;28;20036;-66
2022/08/08 00:06:01;;;;;;;6.15;5.60;;;18.20;99.90;;;;;;5062946;28;20039;-65
2022/08/08 00:08:52;;;;;;;7.53;6.00;;;18.10;99.90;;;;;;5089290;28;20040;-65
2022/08/08 00:11:38;;;;;;;6.10;5.50;;;18.10;99.90;;;;;;5068067;28;20055;-65
2022/08/08 00:14:32;;;;;;;6.25;5.70;;;18.00;99.90;;;;;;5066349;28;20147;-66
2022/08/08 00:17:33;;;;;;;5.70;5.13;;;18.00;99.90;;;;;;5061873;28;20037;-64
2022/08/08 00:20:37;;;;;;;5.70;5.22;;;17.90;99.90;;;;;;5063213;28;20033;-66
2022/08/08 00:23:15;;;;;;;6.00;5.50;;;17.90;99.90;;;;;;5065645;28;20071;-64
2022/08/08 00:25:48;;;;;;;5.60;5.10;;;17.90;99.90;;;;;;5087642;28;20537;-65
2022/08/08 00:28:29;;;;;;;5.97;5.40;;;17.80;99.90;;;;;;5088720;28;20479;-66
2022/08/08 00:31:38;;;;;;;6.15;5.35;;;17.80;99.90;;;;;;5088378;28;20044;-65
2022/08/08 00:35:10;;;;;;;5.30;4.90;;;17.70;99.90;;;;;;5070797;28;20090;-65
2022/08/08 00:38:22;;;;;;;5.93;5.32;;;17.70;99.90;;;;;;5032698;28;20561;-65
2022/08/08 00:41:32;;;;;;;5.82;5.10;;;17.60;99.90;;;;;;5065250;28;20147;-65
2022/08/08 00:44:31;;;;;;;5.68;5.18;;;17.60;99.90;;;;;;5082593;28;20036;-66
2022/08/08 00:47:39;;;;;;;6.07;5.47;;;17.50;99.90;;;;;;5071857;28;20140;-64
2022/08/08 00:50:34;;;;;;;7.78;5.60;;;17.50;99.90;;;;;;5080712;28;20095;-66
2022/08/08 00:53:42;;;;;;;5.70;5.20;;;17.40;99.90;;;;;;5077239;28;20119;-65
2022/08/08 00:56:44;;;;;;;5.75;5.30;;;17.40;99.90;;;;;;5060996;28;20429;-67
2022/08/08 00:59:14;;;;;;;5.65;5.13;;;17.30;99.90;;;;;;5066530;28;20043;-65
2022/08/08 01:02:08;;;;;;;6.25;5.60;;;17.30;99.90;;;;;;5075651;28;20047;-66
2022/08/08 01:05:19;;;;;;;6.05;5.40;;;17.30;99.90;;;;;;5062548;28;20045;-66
2022/08/08 01:08:26;;;;;;;5.90;5.40;;;17.30;99.90;;;;;;5071935;28;20063;-65
2022/08/08 01:11:11;;;;;;;6.20;5.60;;;17.20;99.90;;;;;;5076924;28;20043;-65
2022/08/08 01:14:13;;;;;;;6.35;5.75;;;17.20;99.90;;;;;;5079629;28;20044;-65
2022/08/08 01:16:54;;;;;;;6.28;5.65;;;17.10;99.90;;;;;;5068218;28;20109;-65
2022/08/08 01:19:33;;;;;;;5.90;5.40;;;17.10;99.90;;;;;;5079777;28;20123;-65
2022/08/08 01:22:53;;;;;;;6.40;5.70;;;17.10;99.90;;;;;;5075434;28;20063;-65
2022/08/08 01:25:40;;;;;;;5.95;5.45;;;17.10;99.90;;;;;;5080378;28;20052;-65
2022/08/08 01:28:57;;;;;;;6.15;5.65;;;17.00;99.90;;;;;;5073517;28;20040;-65
2022/08/08 01:31:55;;;;;;;5.75;5.25;;;17.00;99.90;;;;;;5078420;28;20058;-66
2022/08/08 01:35:14;;;;;;;5.60;5.20;;;17.00;99.90;;;;;;5068104;28;20041;-69
2022/08/08 01:38:24;;;;;;;5.90;5.40;;;16.90;99.90;;;;;;5052768;28;20490;-69
2022/08/08 01:41:33;;;;;;;5.82;5.28;;;16.90;99.90;;;;;;5017472;28;20049;-69
2022/08/08 01:44:30;;;;;;;6.53;5.75;;;16.80;99.90;;;;;;5027502;28;20083;-69
2022/08/08 01:47:07;;;;;;;5.72;5.22;;;16.80;99.90;;;;;;5010602;28;20045;-69
2022/08/08 01:50:11;;;;;;;6.70;5.22;;;16.80;99.90;;;;;;5010770;28;20069;-69
2022/08/08 01:52:56;;;;;;;6.55;5.18;;;16.80;99.90;;;;;;5009027;28;20056;-69
2022/08/08 01:56:26;;;;;;;5.38;4.97;;;16.80;99.90;;;;;;5011260;28;20515;-69
2022/08/08 01:59:31;;;;;;;5.80;5.13;;;16.70;99.90;;;;;;5007216;28;20095;-70
2022/08/08 02:02:25;;;;;;;6.00;5.43;;;16.70;99.90;;;;;;5029788;28;20127;-66
2022/08/08 02:05:44;;;;;;;5.45;4.95;;;16.70;99.90;;;;;;5005718;28;20078;-66
2022/08/08 02:08:48;;;;;;;7.32;5.45;;;16.70;99.90;;;;;;5020691;28;20328;-69
2022/08/08 02:11:19;;;;;;;;;;;16.70;99.90;;;;;;5009795;28;20506;-66
2022/08/08 02:14:35;;;;;;;6.35;5.75;;;16.60;99.90;;;;;;5032017;28;19925;-67
2022/08/08 02:17:45;;;;;;;7.97;5.35;;;16.60;99.90;;;;;;5025838;28;20194;-67
2022/08/08 02:20:36;;;;;;;5.78;5.07;;;16.50;99.90;;;;;;5054723;28;20049;-66
2022/08/08 02:23:32;;;;;;;5.68;5.28;;;16.50;99.90;;;;;;5068924;28;20062;-65
2022/08/08 02:26:08;;;;;;;6.07;5.45;;;16.40;99.90;;;;;;5070806;28;20044;-65
2022/08/08 02:28:52;;;;;;;9.38;5.30;;;16.40;99.90;;;;;;5075625;28;20049;-66
2022/08/08 02:31:43;;;;;;;5.32;4.93;;;16.30;99.90;;;;;;5075015;28;20510;-65
2022/08/08 02:34:40;;;;;;;5.80;5.28;;;16.30;99.90;;;;;;5060177;28;20574;-65
2022/08/08 02:38:02;;;;;;;5.55;5.05;;;16.30;99.90;;;;;;5075254;28;20119;-66
2022/08/08 02:40:42;;;;;;;5.72;5.30;;;16.30;99.90;;;;;;5068272;28;20134;-65
2022/08/08 02:43:35;;;;;;;6.10;5.43;;;16.20;99.90;;;;;;5056654;28;20506;-65
2022/08/08 02:46:53;;;;;;;6.00;5.40;;;16.20;99.90;;;;;;5065169;28;20283;-64
2022/08/08 02:49:43;;;;;;;5.88;5.38;;;16.20;99.90;;;;;;5072991;28;20043;-65
2022/08/08 02:52:33;;;;;;;5.80;5.30;;;16.10;99.90;;;;;;5061730;28;20067;-64
2022/08/08 02:55:35;;;;;;;5.55;5.05;;;16.10;99.90;;;;;;5042510;28;20473;-66
2022/08/08 02:58:28;;;;;;;5.90;5.25;;;16.00;99.90;;;;;;5058099;28;20040;-66
2022/08/08 03:01:16;;;;;;;6.15;5.60;;;16.00;99.90;;;;;;5068736;28;20090;-65
2022/08/08 03:04:04;;;;;;;5.95;5.45;;;16.00;99.90;;;;;;5080220;28;20067;-65
2022/08/08 03:07:06;;;;;;;6.05;5.50;;;15.90;99.90;;;;;;5077025;28;20101;-64
2022/08/08 03:09:48;;;;;;;5.93;5.30;;;16.00;99.90;;;;;;5050295;28;20465;-65
2022/08/08 03:12:36;;;;;;;5.85;5.30;;;15.90;99.90;;;;;;5070096;28;20075;-64
2022/08/08 03:15:42;;;;;;;5.78;5.28;;;15.90;99.90;;;;;;5048368;28;20486;-65
2022/08/08 03:18:52;;;;;;;5.68;5.18;;;15.90;99.90;;;;;;5069195;28;20043;-64
2022/08/08 03:21:20;;;;;;;5.80;5.30;;;15.80;99.90;;;;;;5056883;28;20045;-66
2022/08/08 03:24:08;;;;;;;5.72;5.22;;;15.80;99.90;;;;;;5072683;28;20033;-65
2022/08/08 03:26:42;;;;;;;7.90;5.47;;;15.80;99.90;;;;;;5084988;28;20039;-65
2022/08/08 03:29:24;;;;;;;6.28;5.68;;;15.80;99.90;;;;;;5083638;28;20444;-66
2022/08/08 03:35:07;;;;;;;6.38;5.78;;;15.70;99.90;;;;;;5067801;28;20047;-65
2022/08/08 03:37:36;;;;;;;5.85;5.35;;;15.60;99.90;;;;;;5078428;28;20486;-64
2022/08/08 03:40:25;;;;;;;6.30;5.70;;;15.60;99.90;;;;;;5068377;28;20483;-64
2022/08/08 03:43:02;;;;;;;6.63;6.03;;;15.50;99.90;;;;;;5048922;28;20055;-64
2022/08/08 03:45:48;;;;;;;6.95;5.90;;;15.50;99.90;;;;;;5049765;28;20047;-64
2022/08/08 03:48:35;;;;;;;5.88;5.28;;;15.50;99.90;;;;;;5069756;28;20048;-63
2022/08/08 03:51:25;;;;;;;6.00;5.22;;;15.50;99.90;;;;;;5073677;28;20036;-64
2022/08/08 03:54:14;;;;;;;6.85;5.93;;;15.50;99.90;;;;;;5065334;28;20470;-65
2022/08/08 03:57:01;;;;;;;6.82;5.85;;;15.50;99.90;;;;;;5081631;28;20117;-64
2022/08/08 03:59:49;;;;;;;7.13;6.40;;;15.40;99.90;;;;;;5067964;28;20098;-65
2022/08/08 04:02:38;;;;;;;6.70;6.10;;;15.40;99.90;;;;;;5069096;28;20490;-64
2022/08/08 04:05:17;;;;;;;8.63;6.22;;;15.40;99.90;;;;;;5067114;28;20068;-64
2022/08/08 04:07:57;;;;;;;6.50;5.90;;;15.40;99.90;;;;;;5064535;28;20037;-64
2022/08/08 04:10:29;;;;;;;6.65;5.80;;;15.40;99.90;;;;;;5067304;28;20036;-64
2022/08/08 04:13:01;;;;;;;8.00;6.03;;;15.40;99.90;;;;;;5066481;28;20120;-64
2022/08/08 04:15:48;;;;;;;6.00;5.50;;;15.50;99.90;;;;;;5056132;28;20141;-65
2022/08/08 04:18:41;;;;;;;9.02;5.70;;;15.40;99.90;;;;;;5059259;28;20063;-63
2022/08/08 04:21:19;;;;;;;6.35;5.43;;;15.50;99.90;;;;;;5048215;28;20037;-64
2022/08/08 04:23:55;;;;;;;6.13;5.53;;;15.50;99.90;;;;;;5052544;28;20048;-64
2022/08/08 04:26:38;;;;;;;6.53;5.93;;;15.60;99.90;;;;;;5068346;28;20051;-65
2022/08/08 04:29:26;;;;;;;6.85;6.25;;;15.60;99.90;;;;;;5059877;28;20513;-64
2022/08/08 04:31:59;;;;;;;6.18;5.55;;;15.70;99.90;;;;;;5059887;28;20044;-64
2022/08/08 04:34:29;;;;;;;6.97;5.90;;;15.80;99.90;;;;;;5071637;28;20047;-64
2022/08/08 04:37:10;;;;;;;5.97;5.35;;;15.80;99.90;;;;;;5069977;28;20064;-64
2022/08/08 04:39:40;;;;;;;6.30;5.80;;;15.80;99.90;;;;;;5065437;28;20068;-64
2022/08/08 04:42:32;;;;;;;6.03;5.53;;;15.90;99.90;;;;;;5072176;28;20473;-65
2022/08/08 04:45:00;;;;;;;6.22;5.63;;;16.00;99.90;;;;;;5081116;28;20047;-64
2022/08/08 04:47:28;;;;;;;6.07;5.50;;;16.00;99.90;;;;;;5080802;28;20036;-64
2022/08/08 04:49:57;;;;;;;6.55;5.47;;;16.00;99.90;;;;;;5079230;28;20112;-65
2022/08/08 04:52:34;;;;;;;6.60;6.00;;;16.10;99.90;;;;;;5073738;28;20114;-64
2022/08/08 04:55:11;;;;;;;6.20;5.70;;;16.10;99.90;;;;;;5081979;28;20558;-65
2022/08/08 04:57:41;;;;;;;6.53;5.93;;;16.20;99.90;;;;;;5081363;28;20051;-65
2022/08/08 05:00:09;;;;;;;6.43;5.88;;;16.30;99.90;;;;;;5059209;28;20083;-66
2022/08/08 05:02:37;;;;;;;6.50;6.00;;;16.30;99.90;;;;;;5058813;28;20516;-64
2022/08/08 05:05:08;;;;;;;6.68;6.07;;;16.30;99.90;;;;;;5044395;28;20036;-64
2022/08/08 05:07:56;;;;;;;6.50;6.00;;;16.40;99.90;;;;;;5059369;28;20043;-65
2022/08/08 05:10:24;;;;;;;6.88;6.28;;;16.50;99.90;;;;;;5049791;28;20063;-65
2022/08/08 05:12:57;;;;;;;7.07;6.47;;;16.50;99.90;;;;;;5061650;28;20070;-67
2022/08/08 05:15:31;;;;;;;6.40;5.80;;;16.60;99.90;;;;;;5059078;28;20287;-64
2022/08/08 05:18:18;;;;;;;6.88;6.30;;;16.70;99.90;;;;;;5067681;28;20414;-66
2022/08/08 05:20:49;;;;;;;9.32;6.05;;;16.80;99.90;;;;;;5050016;28;20045;-66
2022/08/08 05:23:19;;;;;;;7.22;6.22;;;16.80;99.90;;;;;;5050570;28;20040;-66
2022/08/08 05:25:48;;;;;;;6.80;6.10;;;16.90;99.90;;;;;;5049409;28;20049;-65
2022/08/08 05:28:17;;;;;;;7.07;6.40;;;17.00;99.90;;;;;;5064597;28;20482;-65
2022/08/08 05:31:05;;;;;;;8.13;6.30;;;17.10;99.90;;;;;;5069670;28;20048;-65
2022/08/08 05:33:45;;;;;;;7.28;6.25;;;17.10;99.90;;;;;;5055201;28;20044;-66
2022/08/08 05:36:22;;;;;;;7.07;6.35;;;17.20;99.90;;;;;;5067209;28;20072;-66
2022/08/08 05:38:56;;;;;;;6.72;6.10;;;17.30;99.90;;;;;;5051421;28;20082;-64
2022/08/08 05:41:25;;;;;;;6.75;6.13;;;17.30;99.90;;;;;;5061133;28;20041;-65
2022/08/08 05:44:04;;;;;;;6.93;5.80;;;17.40;99.90;;;;;;5056374;28;20041;-66
2022/08/08 05:46:34;;;;;;;6.50;5.88;;;17.50;99.90;;;;;;5052282;28;20063;-66
2022/08/08 05:49:05;;;;;;;6.35;5.75;;;17.60;99.90;;;;;;5063454;28;20040;-66
2022/08/08 05:51:39;;;;;;;6.70;6.00;;;17.60;99.90;;;;;;5068629;28;20048;-66
2022/08/08 05:54:21;;;;;;;6.72;6.05;;;17.60;99.90;;;;;;5068258;28;20048;-66
2022/08/08 05:56:57;;;;;;;12.27;6.10;;;17.60;99.90;;;;;;5076095;28;20516;-66
2022/08/08 05:59:34;;;;;;;6.13;5.57;;;17.70;99.90;;;;;;5078936;28;20063;-64
2022/08/08 06:05:21;;;;;;;6.07;5.57;;;17.90;99.90;;;;;;5053577;28;20398;-65
2022/08/08 06:08:11;;;;;;;6.22;5.35;;;18.00;99.90;;;;;;5071787;28;20044;-64
2022/08/08 06:11:04;;;;;;;6.53;5.60;;;18.00;99.90;;;;;;5080093;28;20429;-64
2022/08/08 06:13:33;;;;;;;8.18;5.57;;;18.10;99.90;;;;;;5061181;28;20040;-63
2022/08/08 06:16:12;;;;;;;7.00;6.10;;;18.20;99.90;;;;;;5056623;28;20499;-64
2022/08/08 06:19:03;;;;;;;6.72;6.05;;;18.30;99.90;;;;;;5061449;28;20044;-64
2022/08/08 06:21:36;;;;;;;7.85;5.95;;;18.40;99.90;;;;;;5065095;28;20040;-63
2022/08/08 06:24:21;;;;;;;6.95;6.28;;;18.60;99.90;;;;;;5080472;28;20494;-63
2022/08/08 06:27:05;;;;;;;7.63;6.38;;;18.80;99.90;;;;;;5074428;28;20051;-62
2022/08/08 06:29:45;;;;;;;7.55;6.38;;;18.80;99.90;;;;;;5055020;28;20106;-62
2022/08/08 06:32:36;;;;;;;6.72;6.10;;;18.90;99.90;;;;;;5066551;28;20063;-63
2022/08/08 06:35:08;;;;;;;6.93;5.82;;;19.00;99.90;;;;;;5063882;28;20067;-64
2022/08/08 06:38:05;;;;;;;7.10;6.35;;;19.10;99.90;;;;;;5059630;28;20526;-63
2022/08/08 06:40:43;;;;;;;6.45;5.95;;;19.10;99.90;;;;;;5064963;28;20403;-65
2022/08/08 06:43:25;;;;;;;6.88;6.28;;;19.20;99.90;;;;;;5064122;28;20519;-64
2022/08/08 06:46:05;;;;;;;8.63;6.43;;;19.30;99.90;;;;;;5066211;28;20052;-64
2022/08/08 06:48:37;;;;;;;6.45;5.85;;;19.40;99.90;;;;;;5092660;28;20063;-63
2022/08/08 06:51:06;;;;;;;8.57;6.38;;;19.50;99.90;;;;;;5064134;28;20410;-65
2022/08/08 06:53:36;;;;;;;6.65;6.10;;;19.60;99.90;;;;;;5067156;28;20388;-64
2022/08/08 06:56:08;;;;;;;6.55;6.05;;;19.80;99.90;;;;;;5069293;28;20139;-64
2022/08/08 06:58:36;;;;;;;7.03;5.93;;;19.80;99.90;;;;;;5061938;28;20064;-63
2022/08/08 07:01:09;;;;;;;;;;;19.90;99.90;;;;;;5066650;28;20041;-63
2022/08/08 07:04:35;;;;;;;6.70;6.10;;;20.00;99.90;;;;;;5065583;28;20429;-62
2022/08/08 07:07:28;;;;;;;9.05;8.15;;;20.10;99.90;;;;;;5057661;28;20048;-63
2022/08/08 07:10:06;;;;;;;11.77;7.77;;;20.20;99.90;;;;;;5070889;28;20121;-65
2022/08/08 07:12:45;;;;;;;6.85;6.15;;;20.30;99.90;;;;;;5069495;28;20550;-64
2022/08/08 07:15:46;;;;;;;6.20;5.70;;;20.50;99.90;;;;;;5063847;28;20036;-70
2022/08/08 07:19:05;;;;;;;6.53;6.03;;;20.60;99.90;;;;;;5060301;28;20049;-63
2022/08/08 07:22:01;;;;;;;6.97;6.00;;;20.80;99.90;;;;;;5006818;28;20133;-65
2022/08/08 07:24:57;;;;;;;7.90;6.05;;;20.80;99.90;;;;;;4998163;28;20592;-62
2022/08/08 07:27:29;;;;;;;6.97;6.38;;;21.10;99.90;;;;;;4996069;28;20673;-63
2022/08/08 07:30:17;;;;;;;7.07;5.90;;;21.20;99.90;;;;;;4991700;28;20092;-62
2022/08/08 07:32:56;;;;;;;11.10;6.43;;;21.30;99.90;;;;;;5001299;28;20129;-64
2022/08/08 07:35:28;;;;;;;6.60;6.00;;;21.40;99.90;;;;;;4980420;28;20129;-63
2022/08/08 07:37:58;;;;;;;6.65;6.03;;;21.50;99.90;;;;;;4988302;28;20154;-63
2022/08/08 07:40:59;;;;;;;6.68;6.18;;;21.70;99.90;;;;;;4974287;28;20113;-63
2022/08/08 07:43:33;;;;;;;7.05;6.45;;;21.80;99.90;;;;;;4982346;28;20570;-65
2022/08/08 07:46:05;;;;;;;6.78;6.18;;;21.90;99.90;;;;;;4988203;28;20508;-63
2022/08/08 07:48:56;;;;;;;6.72;6.07;;;21.90;99.90;;;;;;4978759;28;20057;-62
2022/08/08 07:51:26;;;;;;;7.15;6.38;;;21.90;99.90;;;;;;4997951;28;20049;-64
2022/08/08 07:54:14;;;;;;;7.20;6.60;;;22.10;99.90;;;;;;4957014;28;20506;-63
2022/08/08 07:57:02;;;;;;;6.25;5.65;;;22.30;99.90;;;;;;4987553;28;20042;-62
2022/08/08 07:59:57;;;;;;;8.98;6.05;;;22.40;99.90;;;;;;5061332;28;20075;-63
2022/08/08 08:02:36;;;;;;;7.15;6.03;;;22.60;99.90;;;;;;5046139;28;20578;-64
2022/08/08 08:05:19;;;;;;;6.53;5.90;;;22.80;99.90;;;;;;5056906;28;20041;-66
2022/08/08 08:07:52;;;;;;;6.15;5.65;;;22.90;99.90;;;;;;5048502;28;20051;-64
2022/08/08 08:10:27;;;;;;;5.97;5.47;;;23.00;99.90;;;;;;5064288;28;20111;-65
2022/08/08 08:13:20;;;;;;;7.53;5.78;;;23.10;99.90;;;;;;5067918;28;20178;-64
2022/08/08 08:16:14;;;;;;;6.43;5.93;;;23.30;99.90;;;;;;5050017;28;20065;-67
2022/08/08 08:18:59;;;;;;;6.28;5.68;;;23.30;99.90;;;;;;5053258;28;20459;-64
2022/08/08 08:21:44;;;;;;;6.32;5.63;;;23.40;99.90;;;;;;5068819;28;20051;-64
2022/08/08 08:24:45;;;;;;;6.32;5.68;;;23.60;99.30;;;;;;5069092;28;20097;-63
2022/08/08 08:27:18;;;;;;;6.85;6.25;;;23.80;98.90;;;;;;5081202;28;20033;-64
2022/08/08 08:29:48;;;;;;;7.25;5.95;;;23.80;97.90;;;;;;5071933;28;20052;-63
2022/08/08 08:32:18;;;;;;;7.50;5.40;;;23.80;97.70;;;;;;5068114;28;20526;-63
2022/08/08 08:35:06;;;;;;;7.50;5.43;;;23.90;97.00;;;;;;5077325;28;20146;-65
2022/08/08 08:37:35;;;;;;;5.68;5.28;;;23.90;96.50;;;;;;5080033;28;20411;-64
2022/08/08 08:40:25;;;;;;;5.80;5.30;;;24.10;95.80;;;;;;5081176;28;20498;-67
2022/08/08 08:42:55;;;;;;;6.40;5.80;;;24.20;95.40;;;;;;5082258;28;20051;-63
2022/08/08 08:45:24;;;;;;;6.20;5.70;;;24.30;95.40;;;;;;5077017;28;20048;-64
2022/08/08 08:47:59;;;;;;;7.03;5.85;;;24.40;94.00;;;;;;5072826;28;20281;-64
2022/08/08 08:50:33;;;;;;;5.85;5.32;;;24.50;93.90;;;;;;5059005;28;20039;-63
2022/08/08 08:53:09;;;;;;;6.38;5.45;;;24.50;93.90;;;;;;5066200;28;20490;-66
2022/08/08 08:56:05;;;;;;;5.93;5.43;;;24.60;94.00;;;;;;5058106;28;20090;-67
2022/08/08 08:58:42;;;;;;;5.70;5.20;;;24.80;93.90;;;;;;5058112;28;20514;-67
2022/08/08 09:01:32;;;;;;;6.80;5.45;;;24.70;93.10;;;;;;5052927;28;20063;-63
2022/08/08 09:04:19;;;;;;;6.75;5.50;;;24.90;92.30;;;;;;5055708;28;20056;-65
2022/08/08 09:07:11;;;;;;;6.10;5.60;;;25.00;92.10;;;;;;5075211;28;20446;-66
2022/08/08 09:09:47;;;;;;;13.65;5.90;;;25.10;92.00;;;;;;5062115;28;20040;-64
2022/08/08 09:12:32;;;;;;;9.27;5.90;;;25.20;91.00;;;;;;5057840;28;20403;-64
2022/08/08 09:15:02;;;;;;;6.10;5.60;;;25.30;91.00;;;;;;5059516;28;20045;-64
2022/08/08 09:17:38;;;;;;;5.43;5.03;;;25.40;90.40;;;;;;5066246;28;20802;-64
2022/08/08 09:20:22;;;;;;;5.57;5.10;;;25.40;88.60;;;;;;5063789;28;20419;-65
2022/08/08 09:23:10;;;;;;;5.53;5.03;;;25.50;86.90;;;;;;5057963;28;20045;-63
2022/08/08 09:26:06;;;;;;;5.70;5.20;;;25.50;86.20;;;;;;5064045;28;20511;-64
2022/08/08 09:28:39;;;;;;;5.80;5.30;;;25.50;84.90;;;;;;5070714;28;20470;-64
2022/08/08 09:31:28;;;;;;;5.72;5.22;;;25.70;84.60;;;;;;5055858;28;20044;-64
2022/08/08 09:34:18;;;;;;;8.65;5.70;;;25.90;83.90;;;;;;5056825;28;20041;-65
2022/08/08 09:37:08;;;;;;;5.60;5.10;;;26.00;81.50;;;;;;5058493;28;20033;-65
2022/08/08 09:40:03;;;;;;;5.68;5.13;;;26.20;82.50;;;;;;5056701;28;20037;-65
2022/08/08 09:42:43;;;;;;;5.97;5.43;;;26.10;81.80;;;;;;5058739;28;20041;-65
2022/08/08 09:45:19;;;;;;;5.68;5.18;;;26.20;79.30;;;;;;5061189;28;20040;-64
2022/08/08 09:48:09;;;;;;;5.65;5.15;;;26.20;79.90;;;;;;5056417;28;20037;-64
2022/08/08 09:50:52;;;;;;;7.40;5.32;;;26.50;80.40;;;;;;5053342;28;20048;-66
2022/08/08 09:53:34;;;;;;;5.93;5.30;;;26.50;79.40;;;;;;5057982;28;20115;-64
2022/08/08 09:56:22;;;;;;;5.95;5.35;;;26.50;80.10;;;;;;5053894;28;20037;-64
2022/08/08 09:59:02;;;;;;;5.90;5.40;;;26.60;80.70;;;;;;5055611;28;20041;-65
2022/08/08 10:01:51;;;;;;;5.70;5.10;;;26.70;80.40;;;;;;5056781;28;20656;-63
2022/08/08 10:04:31;;;;;;;5.68;5.18;;;26.70;80.00;;;;;;5054943;28;20060;-62
2022/08/08 10:07:14;;;;;;;5.75;5.25;;;26.80;80.20;;;;;;5034252;28;20048;-65
2022/08/08 10:09:49;;;;;;;5.97;5.45;;;26.80;79.50;;;;;;5055856;28;20041;-63
2022/08/08 10:12:34;;;;;;;6.63;6.03;;;26.90;79.00;;;;;;5064736;28;20044;-64
2022/08/08 10:15:25;;;;;;;5.72;5.22;;;26.80;78.00;;;;;;5059162;28;20145;-65
2022/08/08 10:17:55;;;;;;;7.65;5.20;;;27.00;77.40;;;;;;5054203;28;20530;-64
2022/08/08 10:20:49;;;;;;;5.80;5.10;;;27.10;78.10;;;;;;5051672;28;20053;-64
2022/08/08 10:23:47;;;;;;;6.35;5.75;;;27.40;76.90;;;;;;5055848;28;20041;-64
2022/08/08 10:26:37;;;;;;;5.53;5.13;;;27.50;76.80;;;;;;5064246;28;20062;-65
2022/08/08 10:29:38;;;;;;;6.10;5.60;;;27.60;76.40;;;;;;5066812;28;20041;-64
2022/08/08 10:32:39;;;;;;;6.25;5.40;;;27.80;76.90;;;;;;5057164;28;20065;-64
2022/08/08 10:35:16;;;;;;;7.93;5.65;;;27.90;76.40;;;;;;5075973;28;20564;-65
2022/08/08 10:38:08;;;;;;;5.70;5.20;;;28.10;75.30;;;;;;5061462;28;20066;-64
2022/08/08 10:40:44;;;;;;;6.07;5.28;;;28.00;75.10;;;;;;5071293;28;20138;-63
2022/08/08 10:43:12;;;;;;;5.88;5.13;;;28.10;75.00;;;;;;5070160;28;20052;-64
2022/08/08 10:45:45;;;;;;;5.70;5.20;;;28.30;74.60;;;;;;5071312;28;20056;-65
2022/08/08 10:48:35;;;;;;;6.20;5.60;;;28.40;73.70;;;;;;5064316;28;20036;-66
2022/08/08 10:51:27;;;;;;;7.78;5.00;;;28.50;73.40;;;;;;5071327;28;20066;-66
2022/08/08 10:54:06;;;;;;;5.88;5.38;;;28.60;73.00;;;;;;5063297;28;20120;-65
2022/08/08 10:56:35;;;;;;;6.35;5.85;;;28.90;72.30;;;;;;5065185;28;20124;-63
2022/08/08 10:59:10;;;;;;;5.35;4.95;;;29.20;72.60;;;;;;5068849;28;20476;-64
2022/08/08 11:01:45;;;;;;;5.75;5.10;;;29.30;71.60;;;;;;5060616;28;20483;-63
2022/08/08 11:04:21;;;;;;;5.57;5.07;;;29.40;71.00;;;;;;5060808;28;20064;-63
2022/08/08 11:07:05;;;;;;;6.35;5.75;;;29.70;70.70;;;;;;5068023;28;20411;-63
2022/08/08 11:09:33;;;;;;;5.82;5.43;;;29.70;70.50;;;;;;5082417;28;20128;-66
2022/08/08 11:12:01;;;;;;;5.10;4.70;;;29.80;69.70;;;;;;5082087;28;20064;-67
2022/08/08 11:14:58;;;;;;;5.65;5.15;;;29.90;68.90;;;;;;5059954;28;20507;-67
2022/08/08 11:17:29;;;;;;;5.93;5.40;;;29.90;67.80;;;;;;5072888;28;20041;-67
2022/08/08 11:20:22;;;;;;;7.55;5.90;;;30.10;67.90;;;;;;5057364;28;20040;-67
2022/08/08 11:23:00;;;;;;;6.00;5.50;;;30.40;67.40;;;;;;5074411;28;20120;-67
2022/08/08 11:25:33;;;;;;;6.38;5.00;;;30.70;65.60;;;;;;5066089;28;20153;-67
2022/08/08 11:28:24;;;;;;;5.70;5.13;;;30.80;65.10;;;;;;5066143;28;20445;-67
2022/08/08 11:30:59;;;;;;;6.20;5.18;;;30.80;63.70;;;;;;5075976;28;20087;-67
2022/08/08 11:33:32;;;;;;;6.45;5.55;;;30.70;63.20;;;;;;5070777;28;20490;-67
2022/08/08 11:36:21;;;;;;;6.25;4.95;;;31.10;62.50;;;;;;5061926;28;20063;-68
2022/08/08 11:38:56;;;;;;;11.02;5.57;;;31.30;62.00;;;;;;5060635;28;20055;-68
2022/08/08 11:41:24;;;;;;;7.03;5.68;;;31.40;61.30;;;;;;5067160;28;20045;-68
2022/08/08 11:43:59;;;;;;;5.55;4.93;;;31.70;61.50;;;;;;5055104;28;20053;-68
2022/08/08 11:46:28;;;;;;;7.93;5.45;;;31.90;60.80;;;;;;5052673;28;20052;-68
2022/08/08 11:49:00;;;;;;;8.27;5.20;;;32.10;60.30;;;;;;5059427;28;20041;-66
2022/08/08 11:51:33;;;;;;;6.00;5.40;;;32.00;59.60;;;;;;5054974;28;20037;-65
2022/08/08 11:54:07;;;;;;;5.80;5.30;;;32.00;60.20;;;;;;5062177;28;20051;-65
2022/08/08 11:57:06;;;;;;;8.13;5.20;;;32.20;59.60;;;;;;5051889;28;20045;-66
2022/08/08 12:00:01;;;;;;;5.57;4.97;;;32.70;58.50;;;;;;5050077;28;20045;-66
2022/08/08 12:02:53;;;;;;;5.55;5.05;;;32.50;58.60;;;;;;5063755;28;20076;-65
2022/08/08 12:05:38;;;;;;;5.70;5.20;;;32.00;58.60;;;;;;5055064;28;20140;-67
2022/08/08 12:08:09;;;;;;;6.57;5.50;;;32.20;58.00;;;;;;5050122;28;20135;-67
2022/08/08 12:10:49;;;;;;;5.72;5.07;;;32.90;57.80;;;;;;5053059;28;20387;-66
2022/08/08 12:13:24;;;;;;;5.78;5.07;;;33.00;56.50;;;;;;5054577;28;20044;-67
2022/08/08 12:16:17;;;;;;;5.63;5.20;;;33.60;56.10;;;;;;5052971;28;20446;-66
2022/08/08 12:18:52;;;;;;;6.53;5.20;;;33.20;56.10;;;;;;5053477;28;20546;-65
2022/08/08 12:21:26;;;;;;;6.65;5.50;;;33.40;56.50;;;;;;5053106;28;20040;-66
2022/08/08 12:24:18;;;;;;;6.05;5.55;;;33.90;56.20;;;;;;5055710;28;20120;-65
2022/08/08 12:26:48;;;;;;;5.72;5.10;;;34.70;55.20;;;;;;5059471;28;20472;-68
2022/08/08 12:29:26;;;;;;;6.38;5.65;;;35.10;54.60;;;;;;5061683;28;20543;-66
2022/08/08 12:32:11;;;;;;;9.18;6.25;;;34.70;54.30;;;;;;5060480;28;20047;-67
2022/08/08 12:34:57;;;;;;;6.03;5.60;;;34.80;54.10;;;;;;5061878;28;20037;-67
2022/08/08 12:37:46;;;;;;;6.30;5.30;;;35.10;53.10;;;;;;5049156;28;20106;-66
2022/08/08 12:40:41;;;;;;;6.10;5.40;;;34.80;53.50;;;;;;5055227;28;20037;-68
2022/08/08 12:43:31;;;;;;;7.10;5.70;;;35.30;53.50;;;;;;5059539;28;20518;-67
2022/08/08 12:46:21;;;;;;;10.32;5.65;;;35.80;52.60;;;;;;5051240;28;20040;-67
2022/08/08 12:48:55;;;;;;;8.20;5.70;;;36.50;51.70;;;;;;5058473;28;20094;-65
2022/08/08 12:51:44;;;;;;;6.47;5.22;;;36.50;51.60;;;;;;5052588;28;20131;-67
2022/08/08 12:54:27;;;;;;;6.72;5.40;;;36.60;51.10;;;;;;5050429;28;20068;-66
2022/08/08 12:57:20;;;;;;;5.38;4.95;;;36.70;50.80;;;;;;5053391;28;20037;-66
2022/08/08 12:59:51;;;;;;;6.63;5.00;;;36.70;49.80;;;;;;5050049;28;20115;-67
2022/08/08 13:02:36;;;;;;;6.68;5.40;;;36.40;49.80;;;;;;5051851;28;20040;-67
2022/08/08 13:05:19;;;;;;;5.93;5.40;;;35.90;50.30;;;;;;5048573;28;20044;-68
2022/08/08 13:08:17;;;;;;;5.70;5.20;;;35.10;51.10;;;;;;5054179;28;20051;-67
2022/08/08 13:10:54;;;;;;;5.68;5.10;;;35.70;51.00;;;;;;5050316;28;20154;-67
2022/08/08 13:13:32;;;;;;;6.10;5.60;;;36.70;50.00;;;;;;5048574;28;20037;-66
2022/08/08 13:16:23;;;;;;;5.85;5.32;;;37.30;49.40;;;;;;5074406;28;20458;-66
2022/08/08 13:18:57;;;;;;;5.65;5.05;;;37.80;48.90;;;;;;5057630;28;20037;-67
2022/08/08 13:21:46;;;;;;;6.75;5.10;;;38.00;47.90;;;;;;5057021;28;20497;-68
2022/08/08 13:24:30;;;;;;;5.53;5.03;;;38.50;47.90;;;;;;5064663;28;20063;-66
2022/08/08 13:27:14;;;;;;;5.50;5.10;;;38.60;47.40;;;;;;5056230;28;20191;-69
2022/08/08 13:29:54;;;;;;;6.00;5.40;;;39.10;47.50;;;;;;5041538;28;20637;-66
2022/08/08 13:32:23;;;;;;;6.10;5.50;;;39.30;46.60;;;;;;5054583;28;20040;-67
2022/08/08 13:34:56;;;;;;;5.85;5.43;;;39.80;46.10;;;;;;5057519;28;20131;-65
2022/08/08 13:37:26;;;;;;;6.18;5.43;;;40.10;45.00;;;;;;5052151;28;20100;-65
2022/08/08 13:40:15;;;;;;;6.80;5.10;;;40.00;44.70;;;;;;5053772;28;20586;-66
2022/08/08 13:42:53;;;;;;;5.38;4.88;;;39.00;44.70;;;;;;5051695;28;20048;-66
2022/08/08 13:45:20;;;;;;;6.38;4.90;;;39.20;45.50;;;;;;5053358;28;20522;-65
2022/08/08 13:48:00;;;;;;;5.50;5.00;;;39.60;44.80;;;;;;5060368;28;20047;-66
2022/08/08 13:50:35;;;;;;;5.32;4.82;;;40.70;43.90;;;;;;5060458;28;20155;-67
2022/08/08 13:53:28;;;;;;;6.45;5.30;;;42.10;42.70;;;;;;5058926;28;20033;-65
2022/08/08 13:56:05;;;;;;;6.78;5.15;;;43.50;41.60;;;;;;5056131;28;20487;-65
2022/08/08 13:58:51;;;;;;;5.85;5.30;;;44.50;40.70;;;;;;5053032;28;20081;-66
2022/08/08 14:01:32;;;;;;;5.30;4.85;;;45.80;39.50;;;;;;5052360;28;20059;-67
2022/08/08 14:04:20;;;;;;;6.88;5.20;;;46.60;38.20;;;;;;5048358;28;20496;-67
2022/08/08 14:06:58;;;;;;;5.57;5.00;;;46.60;37.90;;;;;;5051320;28;20133;-66
2022/08/08 14:09:32;;;;;;;9.20;5.45;;;46.80;37.30;;;;;;5050981;28;20513;-66
2022/08/08 14:12:24;;;;;;;6.20;5.10;;;46.30;37.30;;;;;;5056266;28;20057;-66
2022/08/08 14:14:54;;;;;;;5.72;5.22;;;47.30;36.60;;;;;;5053600;28;20072;-68
2022/08/08 14:17:22;;;;;;;6.05;5.50;;;47.50;36.00;;;;;;5057589;28;20048;-66
2022/08/08 14:20:12;;;;;;;6.40;5.20;;;47.10;35.80;;;;;;5049134;28;20041;-67
2022/08/08 14:23:10;;;;;;;6.90;5.30;;;47.40;35.70;;;;;;5049430;28;20676;-67